Time;durP1;ratioP1;P1;durP2;ratioP2;P2;SDS_P1;SDS_P2;PMS_P1;PMS_P2;Temp;Humidity;BMP_temperature;BMP_pressure;BME280_temperature;BME280_humidity;BME280_pressure;Samples;Min_cycle;Max_cycle;Signal;HPM_P1;HPM_P2
2021/04/02 00:00:27;;;;;;;9.23;3.43;;;;;;;;;;5082035;28;20283;-70
2021/04/02 00:02:52;;;;;;;4.67;2.47;;;;;;;;;;5082799;28;20200;-69
2021/04/02 00:05:19;;;;;;;8.93;3.27;;;;;;;;;;5085458;28;20253;-70
2021/04/02 00:07:44;;;;;;;7.33;2.97;;;;;;;;;;5079583;28;20201;-70
2021/04/02 00:10:15;;;;;;;4.97;2.83;;;;;;;;;;5079982;28;20201;-70
2021/04/02 00:12:40;;;;;;;5.87;3.03;;;;;;;;;;5083699;28;20222;-70
2021/04/02 00:15:07;;;;;;;7.60;2.87;;;;;;;;;;5078348;28;20612;-69
2021/04/02 00:17:32;;;;;;;7.73;2.87;;;;;;;;;;5083092;28;20196;-70
2021/04/02 00:19:57;;;;;;;11.67;3.67;;;;;;;;;;5085857;28;20238;-70
2021/04/02 00:22:22;;;;;;;12.97;4.43;;;;;;;;;;5082473;28;20696;-70
2021/04/02 00:24:47;;;;;;;10.37;3.13;;;;;;;;;;5082198;28;20225;-70
2021/04/02 00:27:13;;;;;;;6.43;2.73;;;;;;;;;;5071865;28;20173;-70
2021/04/02 00:29:38;;;;;;;8.30;3.27;;;;;;;;;;5074442;28;20715;-70
2021/04/02 00:32:03;;;;;;;7.33;2.80;;;;;;;;;;5080783;28;20184;-70
2021/04/02 00:34:28;;;;;;;6.60;2.30;;;;;;;;;;5082650;28;20692;-70
2021/04/02 00:36:53;;;;;;;5.27;2.57;;;;;;;;;;5079199;28;20180;-70
2021/04/02 00:39:19;;;;;;;4.03;2.30;;;;;;;;;;5084113;28;20201;-70
2021/04/02 00:41:44;;;;;;;6.87;2.20;;;;;;;;;;5073506;28;20203;-70
2021/04/02 00:44:09;;;;;;;7.77;2.60;;;;;;;;;;5085110;28;20570;-70
2021/04/02 00:46:34;;;;;;;4.77;2.00;;;;;;;;;;5071534;28;20251;-70
2021/04/02 00:48:59;;;;;;;7.37;2.10;;;;;;;;;;5077985;28;20177;-71
2021/04/02 00:51:27;;;;;;;6.70;2.23;;;;;;;;;;5072621;28;20689;-71
2021/04/02 00:53:52;;;;;;;7.20;2.57;;;;;;;;;;5071594;28;20188;-69
2021/04/02 00:56:18;;;;;;;8.53;2.40;;;;;;;;;;5077666;28;20195;-70
2021/04/02 00:58:43;;;;;;;6.10;2.13;;;;;;;;;;5073570;28;20642;-70
2021/04/02 01:01:10;;;;;;;9.27;2.43;;;;;;;;;;5086336;28;20304;-70
2021/04/02 01:03:35;;;;;;;5.27;2.10;;;;;;;;;;5085130;28;20216;-70
2021/04/02 01:06:02;;;;;;;5.30;2.27;;;;;;;;;;5078629;28;20233;-70
2021/04/02 01:08:28;;;;;;;7.87;2.03;;;;;;;;;;5085204;28;20190;-70
2021/04/02 01:10:54;;;;;;;4.60;1.87;;;;;;;;;;5076596;28;20287;-70
2021/04/02 01:13:46;;;;;;;5.17;2.40;;;;;;;;;;5083978;28;20263;-69
2021/04/02 01:16:25;;;;;;;4.40;1.83;;;;;;;;;;5084004;28;20224;-70
2021/04/02 01:19:02;;;;;;;6.73;2.10;;;;;;;;;;5080127;28;20188;-70
2021/04/02 01:21:29;;;;;;;7.73;2.00;;;;;;;;;;5082592;28;20196;-70
2021/04/02 01:24:00;;;;;;;6.03;2.03;;;;;;;;;;5080576;28;20206;-69
2021/04/02 01:26:31;;;;;;;8.00;2.37;;;;;;;;;;5083506;28;20271;-70
2021/04/02 01:28:59;;;;;;;9.73;2.40;;;;;;;;;;5084960;28;20271;-69
2021/04/02 01:31:25;;;;;;;4.97;2.07;;;;;;;;;;5079511;28;20217;-68
2021/04/02 01:33:52;;;;;;;6.37;2.17;;;;;;;;;;5073902;28;20271;-69
2021/04/02 01:36:17;;;;;;;6.43;2.17;;;;;;;;;;5076812;28;20677;-70
2021/04/02 01:38:43;;;;;;;7.50;2.10;;;;;;;;;;5077246;28;20185;-70
2021/04/02 01:41:10;;;;;;;7.13;2.50;;;;;;;;;;5087782;28;20188;-70
2021/04/02 01:43:43;;;;;;;4.60;2.10;;;;;;;;;;5079057;28;20658;-69
2021/04/02 01:46:08;;;;;;;8.87;1.93;;;;;;;;;;5073640;28;20189;-70
2021/04/02 01:48:35;;;;;;;7.23;2.90;;;;;;;;;;5082642;28;20191;-70
2021/04/02 01:51:01;;;;;;;8.73;2.50;;;;;;;;;;5074848;28;20209;-68
2021/04/02 01:53:28;;;;;;;7.30;2.73;;;;;;;;;;5076214;28;20212;-69
2021/04/02 01:55:54;;;;;;;9.23;2.30;;;;;;;;;;5083417;28;20211;-69
2021/04/02 01:58:19;;;;;;;8.07;2.90;;;;;;;;;;5079320;28;20181;-69
2021/04/02 02:00:47;;;;;;;8.93;2.00;;;;;;;;;;5078965;28;20201;-70
2021/04/02 02:03:12;;;;;;;6.90;2.50;;;;;;;;;;5086523;28;20176;-70
2021/04/02 02:05:38;;;;;;;3.90;2.40;;;;;;;;;;5077758;28;20177;-69
2021/04/02 02:08:03;;;;;;;5.27;2.47;;;;;;;;;;5074126;28;20623;-70
2021/04/02 02:10:29;;;;;;;6.90;2.30;;;;;;;;;;5073508;28;20197;-70
2021/04/02 02:12:56;;;;;;;13.67;3.57;;;;;;;;;;5079069;28;20196;-70
2021/04/02 02:15:22;;;;;;;4.70;2.10;;;;;;;;;;5075559;28;20224;-69
2021/04/02 02:17:48;;;;;;;5.20;2.40;;;;;;;;;;5079180;28;20183;-70
2021/04/02 02:20:15;;;;;;;5.10;2.23;;;;;;;;;;5087756;28;20236;-69
2021/04/02 02:22:41;;;;;;;6.00;2.43;;;;;;;;;;5080010;28;20260;-69
2021/04/02 02:25:08;;;;;;;3.47;2.13;;;;;;;;;;5086503;28;20249;-69
2021/04/02 02:27:35;;;;;;;6.53;3.30;;;;;;;;;;5082496;28;20180;-69
2021/04/02 02:30:00;;;;;;;9.70;4.97;;;;;;;;;;5087001;28;20207;-70
2021/04/02 02:32:25;;;;;;;13.53;8.40;;;;;;;;;;5083208;28;20548;-70
2021/04/02 02:34:52;;;;;;;16.43;9.70;;;;;;;;;;5081935;28;20415;-69
2021/04/02 02:37:17;;;;;;;21.83;13.47;;;;;;;;;;5079084;28;20477;-70
2021/04/02 02:39:42;;;;;;;22.97;13.20;;;;;;;;;;5072346;28;20272;-69
2021/04/02 02:42:08;;;;;;;22.03;13.33;;;;;;;;;;5080520;28;20181;-70
2021/04/02 02:44:34;;;;;;;19.33;14.03;;;;;;;;;;5079071;28;20180;-70
2021/04/02 02:47:04;;;;;;;19.70;12.67;;;;;;;;;;5073243;28;20238;-69
2021/04/02 02:49:29;;;;;;;22.60;13.60;;;;;;;;;;5078165;28;20179;-70
2021/04/02 02:51:55;;;;;;;17.37;12.07;;;;;;;;;;5081934;28;20183;-68
2021/04/02 02:54:22;;;;;;;15.73;11.27;;;;;;;;;;5089709;28;20280;-69
2021/04/02 02:56:49;;;;;;;19.40;13.03;;;;;;;;;;5084046;28;20188;-69
2021/04/02 02:59:17;;;;;;;16.53;11.67;;;;;;;;;;5086502;28;20176;-69
2021/04/02 03:01:43;;;;;;;15.90;11.20;;;;;;;;;;5076434;28;20584;-70
2021/04/02 03:04:08;;;;;;;14.87;11.83;;;;;;;;;;5078794;28;20177;-70
2021/04/02 03:06:35;;;;;;;22.03;12.10;;;;;;;;;;5082222;28;20739;-69
2021/04/02 03:09:01;;;;;;;15.27;10.70;;;;;;;;;;5086361;28;20177;-70
2021/04/02 03:11:27;;;;;;;15.73;8.90;;;;;;;;;;5075645;28;20199;-70
2021/04/02 03:13:53;;;;;;;10.77;5.13;;;;;;;;;;5076164;28;20184;-69
2021/04/02 03:16:19;;;;;;;7.17;3.57;;;;;;;;;;5083813;28;20220;-70
2021/04/02 03:18:46;;;;;;;7.53;3.63;;;;;;;;;;5080755;28;20192;-68
2021/04/02 03:21:12;;;;;;;8.27;3.37;;;;;;;;;;5085856;28;20196;-70
2021/04/02 03:23:40;;;;;;;8.37;3.63;;;;;;;;;;5086807;28;20556;-70
2021/04/02 03:26:05;;;;;;;6.43;3.03;;;;;;;;;;5076416;28;20192;-70
2021/04/02 03:28:31;;;;;;;7.20;3.30;;;;;;;;;;5079308;28;20569;-70
2021/04/02 03:30:56;;;;;;;4.07;2.93;;;;;;;;;;5081932;28;20240;-70
2021/04/02 03:33:23;;;;;;;10.90;3.53;;;;;;;;;;5078041;28;20177;-69
2021/04/02 03:35:48;;;;;;;5.80;2.73;;;;;;;;;;5082481;28;20200;-69
2021/04/02 03:38:15;;;;;;;6.50;2.80;;;;;;;;;;5079123;28;20673;-70
2021/04/02 03:40:41;;;;;;;4.37;2.90;;;;;;;;;;5078630;28;20193;-69
2021/04/02 03:43:07;;;;;;;3.50;2.30;;;;;;;;;;5079276;28;20184;-69
2021/04/02 03:45:32;;;;;;;2.87;2.50;;;;;;;;;;5088578;28;20176;-69
2021/04/02 03:47:59;;;;;;;9.30;3.70;;;;;;;;;;5078136;28;20545;-70
2021/04/02 03:50:27;;;;;;;6.50;2.57;;;;;;;;;;5080496;28;20700;-70
2021/04/02 03:53:13;;;;;;;2.77;2.13;;;;;;;;;;5077776;28;20251;-69
2021/04/02 03:55:39;;;;;;;5.33;2.50;;;;;;;;;;5080547;28;20699;-70
2021/04/02 03:58:05;;;;;;;7.10;2.63;;;;;;;;;;5081064;28;20553;-69
2021/04/02 04:00:38;;;;;;;10.70;2.53;;;;;;;;;;5084923;28;20195;-69
2021/04/02 04:03:05;;;;;;;3.80;2.37;;;;;;;;;;5084254;28;20234;-69
2021/04/02 04:05:31;;;;;;;8.27;2.47;;;;;;;;;;5081883;28;20684;-69
2021/04/02 04:07:56;;;;;;;11.37;2.83;;;;;;;;;;5082968;28;20177;-69
2021/04/02 04:10:22;;;;;;;4.47;2.80;;;;;;;;;;5077766;28;20240;-70
2021/04/02 04:12:48;;;;;;;6.27;3.00;;;;;;;;;;5074954;28;20199;-70
2021/04/02 04:15:14;;;;;;;3.27;2.70;;;;;;;;;;5077785;28;20215;-69
2021/04/02 04:17:41;;;;;;;5.80;3.20;;;;;;;;;;5080596;28;20169;-69
2021/04/02 04:20:07;;;;;;;5.90;3.00;;;;;;;;;;5085533;28;20215;-69
2021/04/02 04:22:33;;;;;;;10.30;3.20;;;;;;;;;;5080706;28;20177;-69
2021/04/02 04:24:59;;;;;;;5.93;3.00;;;;;;;;;;5077971;28;20176;-70
2021/04/02 04:27:26;;;;;;;11.53;3.60;;;;;;;;;;5073128;28;20181;-69
2021/04/02 04:29:52;;;;;;;12.57;3.93;;;;;;;;;;5072786;28;20204;-69
2021/04/02 04:32:19;;;;;;;6.93;3.23;;;;;;;;;;5077883;28;20255;-70
2021/04/02 04:34:47;;;;;;;6.97;4.53;;;;;;;;;;5078431;28;20265;-69
2021/04/02 04:37:13;;;;;;;5.00;3.10;;;;;;;;;;5075327;28;20264;-69
2021/04/02 04:39:40;;;;;;;5.63;2.93;;;;;;;;;;5079502;28;20272;-69
2021/04/02 04:42:06;;;;;;;9.63;3.73;;;;;;;;;;5076397;28;20614;-70
2021/04/02 04:44:31;;;;;;;17.53;4.20;;;;;;;;;;5080053;28;20593;-70
2021/04/02 04:46:56;;;;;;;6.97;3.70;;;;;;;;;;5083176;28;20176;-71
2021/04/02 04:49:22;;;;;;;12.97;3.70;;;;;;;;;;5079598;28;20184;-70
2021/04/02 04:51:48;;;;;;;8.13;3.50;;;;;;;;;;5071780;28;20193;-69
2021/04/02 04:54:14;;;;;;;8.30;3.77;;;;;;;;;;5071947;28;20751;-69
2021/04/02 04:56:39;;;;;;;11.30;3.80;;;;;;;;;;5083356;28;20207;-69
2021/04/02 04:59:06;;;;;;;13.13;4.53;;;;;;;;;;5084328;28;20176;-69
2021/04/02 05:01:34;;;;;;;7.03;3.50;;;;;;;;;;5073367;28;20325;-69
2021/04/02 05:03:59;;;;;;;8.97;3.80;;;;;;;;;;5080812;28;20180;-70
2021/04/02 05:06:25;;;;;;;8.63;3.63;;;;;;;;;;5079753;28;20188;-68
2021/04/02 05:08:51;;;;;;;12.53;4.30;;;;;;;;;;5077356;28;20188;-69
2021/04/02 05:11:19;;;;;;;10.83;3.60;;;;;;;;;;5078803;28;20197;-69
2021/04/02 05:13:45;;;;;;;9.27;3.70;;;;;;;;;;5084486;28;20234;-69
2021/04/02 05:16:10;;;;;;;8.53;3.70;;;;;;;;;;5082807;28;20619;-70
2021/04/02 05:18:36;;;;;;;10.30;3.13;;;;;;;;;;5083902;28;20257;-69
2021/04/02 05:21:01;;;;;;;10.87;3.73;;;;;;;;;;5078176;28;20284;-69
2021/04/02 05:23:26;;;;;;;12.83;3.83;;;;;;;;;;5081254;28;20196;-69
2021/04/02 05:25:52;;;;;;;12.90;3.20;;;;;;;;;;5079845;28;20215;-69
2021/04/02 05:28:17;;;;;;;9.70;2.97;;;;;;;;;;5089792;28;20199;-69
2021/04/02 05:30:43;;;;;;;11.40;3.00;;;;;;;;;;5085663;28;20200;-69
2021/04/02 05:33:08;;;;;;;8.90;3.20;;;;;;;;;;5076825;28;20190;-70
2021/04/02 05:35:34;;;;;;;6.73;2.53;;;;;;;;;;5081780;28;20207;-69
2021/04/02 05:38:00;;;;;;;8.60;2.80;;;;;;;;;;5071513;28;20184;-69
2021/04/02 05:40:26;;;;;;;10.27;3.10;;;;;;;;;;5060214;28;20205;-70
2021/04/02 05:42:59;;;;;;;9.07;3.40;;;;;;;;;;5062086;28;20196;-69
2021/04/02 05:45:25;;;;;;;6.30;3.33;;;;;;;;;;5060685;28;20609;-69
2021/04/02 05:47:52;;;;;;;8.53;3.47;;;;;;;;;;5061349;28;20242;-70
2021/04/02 05:50:18;;;;;;;10.67;3.70;;;;;;;;;;5074429;28;20653;-69
2021/04/02 05:52:45;;;;;;;6.23;3.83;;;;;;;;;;5062257;28;20195;-70
2021/04/02 05:55:11;;;;;;;11.57;3.63;;;;;;;;;;5061216;28;20220;-69
2021/04/02 05:57:36;;;;;;;6.63;3.13;;;;;;;;;;5063580;28;20235;-69
2021/04/02 06:00:02;;;;;;;10.97;4.03;;;;;;;;;;5057364;28;20295;-69
2021/04/02 06:02:27;;;;;;;10.00;3.60;;;;;;;;;;5078031;28;20237;-69
2021/04/02 06:04:53;;;;;;;11.83;3.53;;;;;;;;;;5074085;28;20584;-70
2021/04/02 06:07:18;;;;;;;14.37;4.10;;;;;;;;;;5081047;28;20195;-70
2021/04/02 06:09:43;;;;;;;13.40;3.73;;;;;;;;;;5079281;28;20188;-69
2021/04/02 06:12:10;;;;;;;12.47;4.77;;;;;;;;;;5083377;28;20659;-69
2021/04/02 06:14:35;;;;;;;10.23;3.60;;;;;;;;;;5083122;28;20689;-69
2021/04/02 06:17:01;;;;;;;13.60;3.50;;;;;;;;;;5074447;28;20169;-69
2021/04/02 06:19:26;;;;;;;12.93;3.40;;;;;;;;;;5078840;28;20189;-69
2021/04/02 06:21:52;;;;;;;13.37;3.23;;;;;;;;;;5075611;28;20279;-68
2021/04/02 06:24:33;;;;;;;10.63;3.17;;;;;;;;;;5080539;28;20550;-70
2021/04/02 06:26:59;;;;;;;4.77;2.90;;;;;;;;;;5082696;28;20542;-69
2021/04/02 06:29:25;;;;;;;6.20;3.47;;;;;;;;;;5083695;28;20184;-68
2021/04/02 06:31:50;;;;;;;10.57;3.30;;;;;;;;;;5082227;28;20209;-69
2021/04/02 06:34:16;;;;;;;10.50;3.90;;;;;;;;;;5080479;28;20187;-69
2021/04/02 06:36:45;;;;;;;11.90;3.23;;;;;;;;;;5077316;28;20255;-69
2021/04/02 06:39:10;;;;;;;10.07;2.60;;;;;;;;;;5081347;28;20184;-69
2021/04/02 06:41:36;;;;;;;8.67;2.57;;;;;;;;;;5082321;28;20192;-69
2021/04/02 06:44:02;;;;;;;8.97;2.83;;;;;;;;;;5079304;28;20169;-68
2021/04/02 06:46:28;;;;;;;13.00;2.67;;;;;;;;;;5085130;28;20180;-68
2021/04/02 06:48:54;;;;;;;7.83;2.77;;;;;;;;;;5087225;28;20181;-69
2021/04/02 06:51:21;;;;;;;5.80;2.00;;;;;;;;;;5079798;28;20589;-69
2021/04/02 06:53:47;;;;;;;5.97;2.63;;;;;;;;;;5080746;28;20215;-69
2021/04/02 06:56:13;;;;;;;11.37;2.30;;;;;;;;;;5074208;28;20236;-69
2021/04/02 06:58:39;;;;;;;7.97;2.53;;;;;;;;;;5080962;28;20180;-69
2021/04/02 07:01:05;;;;;;;6.50;2.00;;;;;;;;;;5087308;28;20200;-69
2021/04/02 07:03:31;;;;;;;8.97;2.90;;;;;;;;;;5094046;28;20164;-69
2021/04/02 07:05:56;;;;;;;6.97;2.53;;;;;;;;;;5080870;28;20204;-70
2021/04/02 07:08:22;;;;;;;9.77;2.40;;;;;;;;;;5071010;28;20957;-69
2021/04/02 07:10:47;;;;;;;11.43;2.80;;;;;;;;;;5063975;28;21017;-68
2021/04/02 07:13:13;;;;;;;7.70;2.37;;;;;;;;;;5066650;28;20191;-68
2021/04/02 07:15:38;;;;;;;8.70;2.27;;;;;;;;;;5066838;28;20207;-69
2021/04/02 07:18:04;;;;;;;4.50;2.10;;;;;;;;;;5064612;28;20312;-67
2021/04/02 07:20:30;;;;;;;3.77;2.10;;;;;;;;;;5074730;28;20193;-69
2021/04/02 07:22:56;;;;;;;10.37;2.33;;;;;;;;;;5063203;28;20542;-68
2021/04/02 07:25:22;;;;;;;7.00;2.63;;;;;;;;;;5067543;28;20181;-69
2021/04/02 07:27:47;;;;;;;7.80;2.20;;;;;;;;;;5063425;28;20562;-67
2021/04/02 07:30:14;;;;;;;10.70;3.50;;;;;;;;;;5065375;28;20298;-69
2021/04/02 07:32:40;;;;;;;7.03;1.87;;;;;;;;;;5066074;28;20192;-69
2021/04/02 07:35:06;;;;;;;7.57;2.20;;;;;;;;;;5065262;28;20211;-70
2021/04/02 07:37:35;;;;;;;13.60;2.97;;;;;;;;;;5069687;28;20181;-69
2021/04/02 07:40:00;;;;;;;6.60;2.53;;;;;;;;;;5065974;28;20238;-70
2021/04/02 07:42:29;;;;;;;5.17;2.23;;;;;;;;;;5065887;28;20658;-70
2021/04/02 07:44:55;;;;;;;6.47;1.97;;;;;;;;;;5063766;28;21617;-70
2021/04/02 07:47:22;;;;;;;6.80;2.10;;;;;;;;;;5065054;28;20237;-69
2021/04/02 07:49:48;;;;;;;5.40;2.43;;;;;;;;;;5074531;28;20295;-69
2021/04/02 07:52:13;;;;;;;9.35;3.85;;;;;;;;;;5068095;28;20312;-69
2021/04/02 07:54:41;;;;;;;3.30;1.90;;;;;;;;;;5063484;28;20204;-70
2021/04/02 07:57:09;;;;;;;7.70;1.73;;;;;;;;;;5065903;28;20951;-69
2021/04/02 07:59:43;;;;;;;16.30;3.53;;;;;;;;;;5062670;28;20235;-67
2021/04/02 08:02:09;;;;;;;7.40;2.17;;;;;;;;;;5069196;28;20650;-68
2021/04/02 08:04:38;;;;;;;7.47;2.20;;;;;;;;;;5065619;28;20184;-66
2021/04/02 08:07:04;;;;;;;10.80;1.90;;;;;;;;;;5069148;28;20551;-67
2021/04/02 08:09:31;;;;;;;5.83;2.20;;;;;;;;;;5063747;28;20528;-67
2021/04/02 08:11:57;;;;;;;9.13;1.97;;;;;;;;;;5065815;28;20172;-68
2021/04/02 08:14:33;;;;;;;4.83;2.03;;;;;;;;;;5064550;28;20653;-68
2021/04/02 08:16:58;;;;;;;7.53;2.30;;;;;;;;;;5066836;28;20683;-67
2021/04/02 08:19:29;;;;;;;6.60;1.90;;;;;;;;;;5062379;28;20207;-67
2021/04/02 08:21:55;;;;;;;8.37;2.00;;;;;;;;;;5064677;28;20662;-67
2021/04/02 08:24:25;;;;;;;4.50;1.60;;;;;;;;;;5065624;28;20179;-67
2021/04/02 08:26:51;;;;;;;2.67;1.70;;;;;;;;;;5062239;28;20195;-69
2021/04/02 08:29:17;;;;;;;6.37;1.93;;;;;;;;;;5064636;28;20420;-69
2021/04/02 08:31:44;;;;;;;7.57;1.83;;;;;;;;;;5069547;28;20201;-68
2021/04/02 08:34:09;;;;;;;4.77;1.80;;;;;;;;;;5063937;28;20218;-68
2021/04/02 08:36:37;;;;;;;6.83;2.33;;;;;;;;;;5069125;28;20642;-69
2021/04/02 08:39:02;;;;;;;4.07;1.90;;;;;;;;;;5067417;28;20553;-68
2021/04/02 08:41:31;;;;;;;7.47;2.40;;;;;;;;;;5062139;28;20192;-67
2021/04/02 08:44:00;;;;;;;8.47;2.30;;;;;;;;;;5063565;28;20814;-67
2021/04/02 08:46:51;;;;;;;6.37;1.80;;;;;;;;;;5064789;28;20246;-68
2021/04/02 08:49:16;;;;;;;7.47;2.13;;;;;;;;;;5062267;28;20219;-68
2021/04/02 08:51:48;;;;;;;6.70;2.40;;;;;;;;;;5061637;28;20290;-68
2021/04/02 08:54:15;;;;;;;6.90;1.90;;;;;;;;;;5062670;28;20994;-68
2021/04/02 08:56:40;;;;;;;6.70;1.87;;;;;;;;;;5065539;28;20211;-67
2021/04/02 08:59:07;;;;;;;7.57;1.93;;;;;;;;;;5066695;28;20778;-69
2021/04/02 09:01:32;;;;;;;7.60;3.17;;;;;;;;;;5064113;28;20286;-68
2021/04/02 09:03:58;;;;;;;8.67;1.77;;;;;;;;;;5068461;28;20621;-68
2021/04/02 09:06:23;;;;;;;7.57;2.03;;;;;;;;;;5064612;28;20195;-71
2021/04/02 09:08:49;;;;;;;4.73;2.03;;;;;;;;;;5062248;28;20188;-68
2021/04/02 09:11:14;;;;;;;5.13;1.73;;;;;;;;;;5069205;28;20199;-68
2021/04/02 09:13:43;;;;;;;5.07;1.80;;;;;;;;;;5088158;28;20180;-70
2021/04/02 09:16:14;;;;;;;6.93;1.80;;;;;;;;;;5081003;28;20202;-68
2021/04/02 09:18:49;;;;;;;9.57;2.17;;;;;;;;;;5070383;28;20176;-67
2021/04/02 09:21:15;;;;;;;5.93;1.80;;;;;;;;;;5065126;28;20204;-67
2021/04/02 09:23:40;;;;;;;5.47;1.53;;;;;;;;;;5062436;28;20187;-69
2021/04/02 09:26:09;;;;;;;8.47;2.33;;;;;;;;;;5063175;28;20172;-70
2021/04/02 09:28:36;;;;;;;2.60;1.53;;;;;;;;;;5066972;28;20204;-67
2021/04/02 09:31:17;;;;;;;7.93;1.73;;;;;;;;;;5063734;28;20233;-68
2021/04/02 09:33:43;;;;;;;3.70;1.47;;;;;;;;;;5071536;28;20887;-68
2021/04/02 09:36:12;;;;;;;7.07;1.80;;;;;;;;;;5067450;28;20215;-68
2021/04/02 09:38:37;;;;;;;4.50;1.50;;;;;;;;;;5064979;28;20177;-68
2021/04/02 09:41:03;;;;;;;5.87;1.60;;;;;;;;;;5061774;28;20578;-68
2021/04/02 09:43:40;;;;;;;6.07;1.70;;;;;;;;;;5061608;28;20181;-68
2021/04/02 09:46:05;;;;;;;9.83;2.03;;;;;;;;;;5061954;28;20286;-66
2021/04/02 09:48:35;;;;;;;6.13;2.00;;;;;;;;;;5061018;28;20203;-68
2021/04/02 09:51:00;;;;;;;11.87;2.80;;;;;;;;;;5063437;28;20200;-67
2021/04/02 09:53:26;;;;;;;6.27;1.90;;;;;;;;;;5066326;28;20180;-66
2021/04/02 09:55:51;;;;;;;9.03;2.83;;;;;;;;;;5067665;28;20258;-68
2021/04/02 09:58:16;;;;;;;4.90;1.63;;;;;;;;;;5072238;28;21601;-67
2021/04/02 10:00:41;;;;;;;6.10;1.80;;;;;;;;;;5066062;28;20734;-69
2021/04/02 10:03:13;;;;;;;5.33;2.17;;;;;;;;;;5069368;28;20192;-69
2021/04/02 10:05:38;;;;;;;8.00;2.20;;;;;;;;;;5072398;28;20221;-67
2021/04/02 10:08:03;;;;;;;3.47;1.47;;;;;;;;;;5066343;28;20609;-67
2021/04/02 10:10:28;;;;;;;7.87;1.67;;;;;;;;;;5071906;28;20219;-70
2021/04/02 10:12:54;;;;;;;4.90;1.80;;;;;;;;;;5065379;28;20649;-70
2021/04/02 10:15:19;;;;;;;7.37;2.20;;;;;;;;;;5065960;28;20192;-68
2021/04/02 10:17:45;;;;;;;7.57;1.70;;;;;;;;;;5067123;28;20257;-66
2021/04/02 10:20:10;;;;;;;6.60;1.70;;;;;;;;;;5067884;28;20778;-68
2021/04/02 10:22:35;;;;;;;11.83;1.97;;;;;;;;;;5072408;28;20662;-68
2021/04/02 10:25:01;;;;;;;7.17;1.73;;;;;;;;;;5075692;28;20226;-69
2021/04/02 10:27:26;;;;;;;6.90;1.60;;;;;;;;;;5090028;28;20586;-68
2021/04/02 10:29:51;;;;;;;3.13;1.40;;;;;;;;;;5088457;28;20282;-70
2021/04/02 10:32:17;;;;;;;6.47;2.10;;;;;;;;;;5079571;28;20185;-67
2021/04/02 10:34:42;;;;;;;8.37;1.97;;;;;;;;;;5064507;28;20204;-68
2021/04/02 10:37:07;;;;;;;4.73;1.90;;;;;;;;;;5069663;28;20185;-67
2021/04/02 10:39:33;;;;;;;9.07;1.80;;;;;;;;;;5066119;28;20263;-69
2021/04/02 10:41:58;;;;;;;11.57;1.77;;;;;;;;;;5069226;28;20557;-68
2021/04/02 10:44:24;;;;;;;7.67;2.17;;;;;;;;;;5066155;28;20615;-68
2021/04/02 10:46:49;;;;;;;7.03;1.43;;;;;;;;;;5067997;28;20211;-70
2021/04/02 10:49:14;;;;;;;9.43;2.20;;;;;;;;;;5063729;28;20719;-67
2021/04/02 10:51:39;;;;;;;6.77;1.73;;;;;;;;;;5070131;28;20216;-68
2021/04/02 10:54:04;;;;;;;9.10;1.87;;;;;;;;;;5064873;28;20723;-67
2021/04/02 10:56:30;;;;;;;6.67;1.23;;;;;;;;;;5066992;28;20246;-68
2021/04/02 10:58:56;;;;;;;9.33;1.63;;;;;;;;;;5069041;28;20181;-68
2021/04/02 11:01:21;;;;;;;7.50;2.03;;;;;;;;;;5066055;28;20282;-67
2021/04/02 11:03:46;;;;;;;5.00;2.10;;;;;;;;;;5071288;28;20173;-70
2021/04/02 11:06:11;;;;;;;8.47;2.07;;;;;;;;;;5067810;28;20676;-68
2021/04/02 11:08:37;;;;;;;5.63;2.00;;;;;;;;;;5069750;28;20176;-68
2021/04/02 11:11:02;;;;;;;9.67;2.27;;;;;;;;;;5066755;28;20283;-68
2021/04/02 11:13:27;;;;;;;6.23;2.43;;;;;;;;;;5063242;28;20505;-68
2021/04/02 11:15:52;;;;;;;4.27;2.00;;;;;;;;;;5070306;28;20204;-67
2021/04/02 11:18:17;;;;;;;8.27;1.90;;;;;;;;;;5064420;28;20310;-68
2021/04/02 11:20:42;;;;;;;8.43;1.90;;;;;;;;;;5065642;28;20192;-68
2021/04/02 11:23:08;;;;;;;4.87;1.77;;;;;;;;;;5069166;28;20193;-68
2021/04/02 11:25:33;;;;;;;6.47;1.60;;;;;;;;;;5066182;28;20192;-68
2021/04/02 11:27:58;;;;;;;8.10;1.40;;;;;;;;;;5066781;28;20213;-68
2021/04/02 11:30:23;;;;;;;6.70;2.23;;;;;;;;;;5068233;28;20211;-68
2021/04/02 11:32:49;;;;;;;7.70;1.67;;;;;;;;;;5067263;28;20185;-66
2021/04/02 11:35:15;;;;;;;11.00;2.03;;;;;;;;;;5065509;28;20704;-66
2021/04/02 11:37:40;;;;;;;5.80;1.93;;;;;;;;;;5066156;28;20177;-68
2021/04/02 11:40:07;;;;;;;7.40;2.03;;;;;;;;;;5070781;28;20607;-67
2021/04/02 11:42:32;;;;;;;6.17;1.80;;;;;;;;;;5068550;28;22300;-67
2021/04/02 11:44:57;;;;;;;6.37;1.97;;;;;;;;;;5065979;28;20180;-66
2021/04/02 11:47:22;;;;;;;10.33;2.20;;;;;;;;;;5067559;28;20180;-68
2021/04/02 11:49:48;;;;;;;5.73;1.73;;;;;;;;;;5066112;28;20729;-69
2021/04/02 11:52:13;;;;;;;8.50;2.80;;;;;;;;;;5062813;28;20906;-68
2021/04/02 11:54:38;;;;;;;5.43;1.57;;;;;;;;;;5073636;28;20649;-69
2021/04/02 11:57:04;;;;;;;5.20;1.90;;;;;;;;;;5068546;28;20626;-68
2021/04/02 11:59:29;;;;;;;6.93;1.73;;;;;;;;;;5064078;28;20169;-69
2021/04/02 12:01:55;;;;;;;8.27;2.07;;;;;;;;;;5076459;28;20606;-67
2021/04/02 12:04:20;;;;;;;6.87;1.80;;;;;;;;;;5071174;28;21377;-68
2021/04/02 12:06:45;;;;;;;10.60;2.07;;;;;;;;;;5068926;28;20210;-68
2021/04/02 12:09:11;;;;;;;7.13;2.40;;;;;;;;;;5063279;28;20207;-68
2021/04/02 12:11:36;;;;;;;5.23;1.60;;;;;;;;;;5063755;28;20211;-68
2021/04/02 12:14:01;;;;;;;8.77;2.17;;;;;;;;;;5066293;28;20177;-67
2021/04/02 12:16:26;;;;;;;8.00;2.77;;;;;;;;;;5069225;28;20298;-68
2021/04/02 12:18:52;;;;;;;6.90;2.10;;;;;;;;;;5065942;28;20191;-67
2021/04/02 12:21:17;;;;;;;13.03;2.93;;;;;;;;;;5066292;28;20691;-68
2021/04/02 12:23:43;;;;;;;6.30;2.20;;;;;;;;;;5067008;28;20177;-67
2021/04/02 12:26:08;;;;;;;7.43;2.20;;;;;;;;;;5070838;28;20263;-69
2021/04/02 12:28:33;;;;;;;8.10;2.40;;;;;;;;;;5075857;28;20228;-68
2021/04/02 12:31:01;;;;;;;9.13;2.43;;;;;;;;;;5066012;28;20208;-68
2021/04/02 12:33:26;;;;;;;6.93;2.53;;;;;;;;;;5068710;28;20192;-68
2021/04/02 12:35:51;;;;;;;9.90;2.43;;;;;;;;;;5069039;28;20209;-68
2021/04/02 12:38:16;;;;;;;4.60;2.30;;;;;;;;;;5070676;28;20176;-67
2021/04/02 12:40:41;;;;;;;10.43;2.40;;;;;;;;;;5067562;28;20216;-67
2021/04/02 12:43:07;;;;;;;10.93;3.43;;;;;;;;;;5065555;28;20199;-68
2021/04/02 12:45:33;;;;;;;11.63;3.80;;;;;;;;;;5063872;28;20706;-68
2021/04/02 12:47:58;;;;;;;6.83;3.47;;;;;;;;;;5067064;28;20208;-66
2021/04/02 12:50:24;;;;;;;10.47;3.20;;;;;;;;;;5063089;28;20734;-69
2021/04/02 12:52:49;;;;;;;9.07;2.47;;;;;;;;;;5064400;28;20190;-68
2021/04/02 12:55:19;;;;;;;6.70;2.27;;;;;;;;;;5065232;28;20254;-67
2021/04/02 12:57:44;;;;;;;6.80;2.30;;;;;;;;;;5066193;28;20184;-68
2021/04/02 13:00:12;;;;;;;11.10;3.20;;;;;;;;;;5068515;28;20200;-68
2021/04/02 13:02:37;;;;;;;7.00;2.50;;;;;;;;;;5063689;28;20211;-68
2021/04/02 13:05:03;;;;;;;5.47;2.37;;;;;;;;;;5067166;28;20180;-67
2021/04/02 13:07:28;;;;;;;7.33;2.80;;;;;;;;;;5070152;28;20238;-68
2021/04/02 13:09:53;;;;;;;11.60;2.70;;;;;;;;;;5062352;28;20654;-67
2021/04/02 13:12:18;;;;;;;8.30;2.23;;;;;;;;;;5063622;28;20185;-67
2021/04/02 13:14:43;;;;;;;9.27;2.77;;;;;;;;;;5063009;28;21563;-69
2021/04/02 13:17:09;;;;;;;7.47;3.10;;;;;;;;;;5067345;28;20168;-67
2021/04/02 13:19:34;;;;;;;9.40;2.60;;;;;;;;;;5062834;28;20176;-68
2021/04/02 13:22:00;;;;;;;8.60;2.70;;;;;;;;;;5069366;28;20192;-68
2021/04/02 13:24:25;;;;;;;8.63;2.47;;;;;;;;;;5064514;28;20192;-68
2021/04/02 13:26:50;;;;;;;11.63;3.27;;;;;;;;;;5062574;28;20188;-68
2021/04/02 13:29:15;;;;;;;6.43;2.43;;;;;;;;;;5066700;28;20731;-67
2021/04/02 13:31:40;;;;;;;9.60;2.80;;;;;;;;;;5067351;28;21304;-68
2021/04/02 13:34:05;;;;;;;10.87;3.40;;;;;;;;;;5066041;28;20665;-67
2021/04/02 13:36:31;;;;;;;8.17;2.70;;;;;;;;;;5063423;28;20224;-68
2021/04/02 13:38:56;;;;;;;7.37;2.60;;;;;;;;;;5068112;28;20214;-69
2021/04/02 13:41:22;;;;;;;7.93;2.50;;;;;;;;;;5068160;28;20207;-69
2021/04/02 13:43:47;;;;;;;8.40;2.67;;;;;;;;;;5066019;28;22498;-69
2021/04/02 13:46:12;;;;;;;9.43;3.00;;;;;;;;;;5065514;28;20710;-69
2021/04/02 13:48:37;;;;;;;6.80;2.30;;;;;;;;;;5065993;28;20184;-70
2021/04/02 13:51:03;;;;;;;6.30;1.97;;;;;;;;;;5061116;28;20247;-69
2021/04/02 13:53:28;;;;;;;6.10;2.13;;;;;;;;;;5063593;28;20601;-69
2021/04/02 13:55:53;;;;;;;5.83;2.33;;;;;;;;;;5068326;28;20251;-68
2021/04/02 13:58:20;;;;;;;9.17;2.30;;;;;;;;;;5063578;28;20180;-69
2021/04/02 14:00:45;;;;;;;6.20;2.50;;;;;;;;;;5066635;28;20700;-68
2021/04/02 14:03:10;;;;;;;5.23;2.77;;;;;;;;;;5069523;28;20223;-69
2021/04/02 14:05:36;;;;;;;5.30;2.13;;;;;;;;;;5067904;28;20623;-70
2021/04/02 14:08:01;;;;;;;8.17;2.10;;;;;;;;;;5072807;28;20631;-70
2021/04/02 14:10:28;;;;;;;5.93;2.50;;;;;;;;;;5064643;28;20200;-69
2021/04/02 14:12:53;;;;;;;6.53;2.00;;;;;;;;;;5062007;28;20269;-70
2021/04/02 14:15:19;;;;;;;5.00;2.63;;;;;;;;;;5063031;28;20222;-69
2021/04/02 14:17:45;;;;;;;3.97;2.00;;;;;;;;;;5063014;28;20223;-70
2021/04/02 14:20:12;;;;;;;6.43;2.27;;;;;;;;;;5061217;28;20754;-68
2021/04/02 14:22:37;;;;;;;8.23;2.50;;;;;;;;;;5072845;28;20208;-69
2021/04/02 14:25:03;;;;;;;7.57;2.40;;;;;;;;;;5082158;28;20257;-69
2021/04/02 14:27:28;;;;;;;6.77;2.47;;;;;;;;;;5070934;28;20183;-70
2021/04/02 14:29:53;;;;;;;7.00;2.17;;;;;;;;;;5063321;28;20285;-69
2021/04/02 14:32:19;;;;;;;8.13;2.00;;;;;;;;;;5063507;28;20547;-70
2021/04/02 14:34:44;;;;;;;7.20;2.07;;;;;;;;;;5062176;28;20201;-68